createdAt,value
2022-09-17T00:00:55.263Z,1.00
2022-09-17T00:03:23.124Z,1.20
2022-09-17T00:05:49.772Z,1.70
2022-09-17T00:08:16.545Z,1.00
2022-09-17T00:10:44.852Z,1.60
2022-09-17T00:13:11.840Z,1.47
2022-09-17T00:15:46.409Z,1.30
2022-09-17T00:18:14.937Z,1.50
2022-09-17T00:20:43.683Z,1.57
2022-09-17T00:23:11.549Z,1.50
2022-09-17T00:25:45.804Z,1.40
2022-09-17T00:28:14.150Z,1.37
2022-09-17T00:30:45.361Z,1.20
2022-09-17T00:33:14.353Z,1.67
2022-09-17T00:35:41.408Z,1.57
2022-09-17T00:38:08.470Z,1.30
2022-09-17T00:40:35.503Z,1.60
2022-09-17T00:43:02.534Z,1.50
2022-09-17T00:45:32.039Z,1.50
2022-09-17T00:48:02.541Z,1.27
2022-09-17T00:50:35.001Z,1.40
2022-09-17T00:53:22.439Z,1.13
2022-09-17T00:56:01.855Z,1.47
2022-09-17T00:58:29.651Z,1.40
2022-09-17T01:00:56.377Z,1.63
2022-09-17T01:03:23.181Z,1.40
2022-09-17T01:06:20.952Z,1.40
2022-09-17T01:09:10.368Z,1.10
2022-09-17T01:11:58.838Z,1.70
2022-09-17T01:15:03.333Z,1.60
2022-09-17T01:17:39.368Z,1.70
2022-09-17T01:20:11.806Z,1.73
2022-09-17T01:22:54.801Z,1.43
2022-09-17T01:25:51.474Z,1.50
2022-09-17T01:28:49.864Z,1.70
2022-09-17T01:31:35.914Z,1.80
2022-09-17T01:34:15.671Z,1.70
2022-09-17T01:36:49.639Z,1.67
2022-09-17T01:39:34.659Z,1.60
2022-09-17T01:42:10.378Z,1.60
2022-09-17T01:44:46.232Z,1.83
2022-09-17T01:47:22.579Z,1.70
2022-09-17T01:49:52.859Z,1.67
2022-09-17T01:52:20.627Z,1.30
2022-09-17T01:54:54.544Z,1.67
2022-09-17T01:57:36.638Z,1.77
2022-09-17T02:00:16.033Z,1.40
2022-09-17T02:03:01.200Z,1.50
2022-09-17T02:05:31.102Z,1.40
2022-09-17T02:08:04.898Z,1.30
2022-09-17T02:10:44.006Z,1.90
2022-09-17T02:13:16.604Z,1.77
2022-09-17T02:15:51.863Z,1.60
2022-09-17T02:18:24.719Z,1.97
2022-09-17T02:21:15.563Z,1.63
2022-09-17T02:23:55.717Z,1.87
2022-09-17T02:26:24.969Z,1.20
2022-09-17T02:28:57.541Z,1.10
2022-09-17T02:31:24.309Z,1.40
2022-09-17T02:33:54.955Z,1.80
2022-09-17T02:36:22.059Z,1.43
2022-09-17T02:38:48.697Z,1.83
2022-09-17T02:41:23.249Z,1.67
2022-09-17T02:44:01.935Z,1.80
2022-09-17T02:47:02.242Z,1.60
2022-09-17T02:49:44.056Z,1.20
2022-09-17T02:52:10.717Z,1.57
2022-09-17T02:55:02.361Z,1.33
2022-09-17T02:57:50.484Z,1.40
2022-09-17T03:00:19.191Z,1.73
2022-09-17T03:02:56.331Z,2.10
2022-09-17T03:05:24.977Z,1.63
2022-09-17T03:07:52.024Z,1.40
2022-09-17T03:10:19.951Z,2.60
2022-09-17T03:12:46.588Z,1.83
2022-09-17T03:15:13.240Z,1.30
2022-09-17T03:17:40.087Z,1.40
2022-09-17T03:20:07.124Z,1.57
2022-09-17T03:22:33.962Z,1.80
2022-09-17T03:25:00.587Z,1.47
2022-09-17T03:27:27.293Z,1.20
2022-09-17T03:29:54.018Z,1.57
2022-09-17T03:32:20.668Z,1.57
2022-09-17T03:34:47.286Z,3.03
2022-09-17T03:37:14.127Z,2.00
2022-09-17T03:39:40.744Z,1.53
2022-09-17T03:42:07.418Z,1.70
2022-09-17T03:44:34.270Z,1.77
2022-09-17T03:47:01.074Z,1.47
2022-09-17T03:49:27.776Z,1.97
2022-09-17T03:51:54.499Z,1.97
2022-09-17T03:54:21.270Z,1.70
2022-09-17T03:56:47.888Z,1.83
2022-09-17T03:59:14.883Z,1.60
2022-09-17T04:01:41.755Z,2.20
2022-09-17T04:04:08.518Z,1.83
2022-09-17T04:06:35.236Z,1.70
2022-09-17T04:09:04.582Z,1.93
2022-09-17T04:11:31.327Z,2.00
2022-09-17T04:13:58.003Z,1.87
2022-09-17T04:16:24.808Z,1.90
2022-09-17T04:18:51.622Z,1.73
2022-09-17T04:21:18.284Z,2.40
2022-09-17T04:23:44.899Z,1.77
2022-09-17T04:26:11.678Z,2.97
2022-09-17T04:28:38.468Z,2.20
2022-09-17T04:31:05.230Z,1.90
2022-09-17T04:33:31.880Z,1.77
2022-09-17T04:35:58.516Z,2.17
2022-09-17T04:38:25.184Z,1.93
2022-09-17T04:40:51.989Z,1.67
2022-09-17T04:43:18.626Z,2.17
2022-09-17T04:45:47.127Z,2.60
2022-09-17T04:48:13.775Z,1.80
2022-09-17T04:50:40.487Z,2.13
2022-09-17T04:53:07.223Z,2.20
2022-09-17T04:55:33.957Z,2.10
2022-09-17T04:58:00.830Z,2.10
2022-09-17T05:00:27.674Z,1.97
2022-09-17T05:02:55.824Z,2.10
2022-09-17T05:05:23.560Z,2.00
2022-09-17T05:07:50.361Z,2.60
2022-09-17T05:10:19.330Z,1.90
2022-09-17T05:12:50.841Z,1.90
2022-09-17T05:15:17.914Z,1.63
2022-09-17T05:17:45.040Z,1.60
2022-09-17T05:20:12.603Z,2.33
2022-09-17T05:22:44.548Z,1.67
2022-09-17T05:25:13.183Z,1.83
2022-09-17T05:27:40.378Z,1.93
2022-09-17T05:30:08.339Z,2.73
2022-09-17T05:32:36.695Z,2.33
2022-09-17T05:35:05.756Z,2.10
2022-09-17T05:37:32.816Z,1.93
2022-09-17T05:39:59.692Z,2.20
2022-09-17T05:42:26.391Z,1.40
2022-09-17T05:44:53.093Z,1.90
2022-09-17T05:47:19.706Z,1.87
2022-09-17T05:49:46.289Z,2.10
2022-09-17T05:52:12.954Z,1.50
2022-09-17T05:54:39.615Z,1.30
2022-09-17T05:57:06.334Z,1.40
2022-09-17T05:59:33.370Z,1.73
2022-09-17T06:02:00.076Z,1.80
2022-09-17T06:04:27.309Z,1.50
2022-09-17T06:06:55.495Z,1.37
2022-09-17T06:09:22.194Z,1.50
2022-09-17T06:11:48.882Z,1.40
2022-09-17T06:14:16.293Z,1.40
2022-09-17T06:16:42.992Z,1.60
2022-09-17T06:19:09.710Z,1.10
2022-09-17T06:21:36.332Z,1.40
2022-09-17T06:24:03.295Z,1.40
2022-09-17T06:26:29.911Z,1.67
2022-09-17T06:28:58.791Z,1.57
2022-09-17T06:31:25.523Z,1.47
2022-09-17T06:33:52.752Z,1.70
2022-09-17T06:36:20.613Z,1.30
2022-09-17T06:38:47.245Z,1.40
2022-09-17T06:41:14.950Z,3.57
2022-09-17T06:43:41.587Z,1.80
2022-09-17T06:46:10.255Z,2.10
2022-09-17T06:48:38.209Z,2.40
2022-09-17T06:51:07.546Z,1.80
2022-09-17T06:53:36.713Z,1.70
2022-09-17T06:56:06.637Z,1.90
2022-09-17T06:58:37.007Z,1.93
2022-09-17T07:01:04.831Z,2.30
2022-09-17T07:03:32.189Z,2.30
2022-09-17T07:05:59.577Z,2.83
2022-09-17T07:08:26.279Z,1.90
2022-09-17T07:10:57.143Z,1.83
2022-09-17T07:13:24.840Z,2.07
2022-09-17T07:15:56.573Z,2.80
2022-09-17T07:18:23.844Z,2.47
2022-09-17T07:20:58.978Z,2.70
2022-09-17T07:23:27.997Z,1.90
2022-09-17T07:25:56.078Z,2.23
2022-09-17T07:28:23.685Z,2.00
2022-09-17T07:30:51.666Z,2.13
2022-09-17T07:33:23.213Z,3.60
2022-09-17T07:36:01.048Z,2.23
2022-09-17T07:38:28.999Z,1.97
2022-09-17T07:41:01.339Z,2.10
2022-09-17T07:43:30.399Z,2.30
2022-09-17T07:45:58.509Z,2.10
2022-09-17T07:48:25.894Z,2.10
2022-09-17T07:50:52.566Z,2.13
2022-09-17T07:53:19.208Z,2.83
2022-09-17T07:55:59.590Z,2.90
2022-09-17T07:58:31.447Z,2.40
2022-09-17T08:01:08.891Z,2.73
2022-09-17T08:03:36.757Z,3.00
2022-09-17T08:06:08.681Z,2.70
2022-09-17T08:08:37.288Z,2.30
2022-09-17T08:11:32.409Z,2.43
2022-09-17T08:14:04.823Z,2.93
2022-09-17T08:16:31.709Z,2.30
2022-09-17T08:18:58.491Z,3.37
2022-09-17T08:21:25.416Z,2.33
2022-09-17T08:23:52.132Z,3.07
2022-09-17T08:26:22.706Z,2.90
2022-09-17T08:28:52.163Z,3.60
2022-09-17T08:31:19.428Z,2.70
2022-09-17T08:33:47.057Z,2.90
2022-09-17T08:36:15.845Z,2.80
2022-09-17T08:38:42.681Z,3.27
2022-09-17T08:41:30.167Z,3.00
2022-09-17T08:44:26.185Z,3.23
2022-09-17T08:47:03.395Z,3.67
2022-09-17T08:49:34.491Z,3.70
2022-09-17T08:52:11.882Z,3.20
2022-09-17T08:54:52.897Z,4.03
2022-09-17T08:57:39.553Z,3.93
2022-09-17T09:00:14.226Z,3.60
2022-09-17T09:02:57.616Z,3.50
2022-09-17T09:05:46.041Z,3.23
2022-09-17T09:08:22.371Z,3.60
2022-09-17T09:11:00.975Z,3.30
2022-09-17T09:13:34.011Z,3.93
2022-09-17T09:16:16.945Z,3.70
2022-09-17T09:18:43.762Z,3.40
2022-09-17T09:21:34.147Z,4.20
2022-09-17T09:24:26.127Z,4.27
2022-09-17T09:27:32.770Z,3.20
2022-09-17T09:30:13.443Z,3.57
2022-09-17T09:33:00.124Z,2.73
2022-09-17T09:35:29.820Z,3.00
2022-09-17T09:38:15.816Z,3.13
2022-09-17T09:40:46.090Z,4.70
2022-09-17T09:43:21.311Z,2.93
2022-09-17T09:45:55.943Z,3.40
2022-09-17T09:48:45.125Z,2.67
2022-09-17T09:51:28.035Z,3.00
2022-09-17T09:54:18.014Z,2.03
2022-09-17T09:56:58.607Z,2.60
2022-09-17T09:59:26.791Z,1.90
2022-09-17T10:01:53.672Z,1.90
2022-09-17T10:04:26.173Z,1.80
2022-09-17T10:07:07.725Z,2.60
2022-09-17T10:09:37.023Z,2.70
2022-09-17T10:12:16.124Z,3.57
2022-09-17T10:14:45.168Z,2.27
2022-09-17T10:17:22.003Z,2.93
2022-09-17T10:20:10.646Z,2.80
2022-09-17T10:22:39.646Z,2.47
2022-09-17T10:25:20.199Z,2.10
2022-09-17T10:27:48.298Z,1.83
2022-09-17T10:30:17.407Z,1.70
2022-09-17T10:32:44.633Z,1.83
2022-09-17T10:35:17.025Z,2.00
2022-09-17T10:37:47.845Z,2.80
2022-09-17T10:40:18.328Z,1.90
2022-09-17T10:42:49.729Z,2.50
2022-09-17T10:45:27.686Z,2.10
2022-09-17T10:47:59.510Z,2.13
2022-09-17T10:50:31.848Z,2.00
2022-09-17T10:53:15.575Z,2.27
2022-09-17T10:56:21.930Z,2.00
2022-09-17T10:58:58.759Z,2.20
2022-09-17T11:01:51.642Z,3.00
2022-09-17T11:04:49.853Z,2.53
2022-09-17T11:07:33.239Z,2.57
2022-09-17T11:10:14.658Z,2.13
2022-09-17T11:12:56.126Z,1.90
2022-09-17T11:15:28.817Z,2.10
2022-09-17T11:18:18.976Z,1.63
2022-09-17T11:21:10.437Z,1.93
2022-09-17T11:24:32.149Z,1.77
2022-09-17T11:27:07.603Z,1.90
2022-09-17T11:29:45.096Z,1.80
2022-09-17T11:32:48.401Z,1.43
2022-09-17T11:35:29.818Z,1.63
2022-09-17T11:38:03.802Z,1.33
2022-09-17T11:40:39.415Z,1.80
2022-09-17T11:43:45.587Z,1.53
2022-09-17T11:46:22.760Z,1.80
2022-09-17T11:48:58.860Z,2.10
2022-09-17T11:51:40.291Z,1.57
2022-09-17T11:54:23.629Z,1.60
2022-09-17T11:56:54.362Z,2.23
2022-09-17T11:59:26.953Z,1.90
2022-09-17T12:01:59.014Z,2.30
2022-09-17T12:04:48.098Z,1.67
2022-09-17T12:07:33.619Z,2.50
2022-09-17T12:10:17.123Z,1.73
2022-09-17T12:12:53.753Z,1.60
2022-09-17T12:15:23.396Z,1.90
2022-09-17T12:18:33.463Z,1.40
2022-09-17T12:21:05.000Z,1.73
2022-09-17T12:23:44.091Z,1.83
2022-09-17T12:26:46.925Z,1.60
2022-09-17T12:29:41.355Z,1.40
2022-09-17T12:32:35.285Z,1.53
2022-09-17T12:35:17.517Z,1.60
2022-09-17T12:37:58.926Z,1.40
2022-09-17T12:40:28.779Z,2.30
2022-09-17T12:43:06.534Z,1.73
2022-09-17T12:45:42.290Z,1.40
2022-09-17T12:48:20.925Z,1.80
2022-09-17T12:50:52.363Z,1.57
2022-09-17T12:54:03.842Z,1.30
2022-09-17T12:56:49.405Z,1.30
2022-09-17T12:59:20.690Z,1.27
2022-09-17T13:02:02.238Z,1.10
2022-09-17T13:05:00.435Z,1.37
2022-09-17T13:07:43.155Z,1.50
2022-09-17T13:10:27.833Z,1.40
2022-09-17T13:12:57.564Z,1.20
2022-09-17T13:15:35.415Z,1.60
2022-09-17T13:18:26.264Z,1.13
2022-09-17T13:21:04.250Z,2.03
2022-09-17T13:23:40.822Z,1.43
2022-09-17T13:26:09.030Z,1.57
2022-09-17T13:28:58.169Z,1.50
2022-09-17T13:31:37.151Z,1.30
2022-09-17T13:34:04.427Z,1.70
2022-09-17T13:36:38.894Z,1.40
2022-09-17T13:39:08.284Z,1.50
2022-09-17T13:41:38.855Z,1.10
2022-09-17T13:44:06.972Z,1.30
2022-09-17T13:46:35.077Z,1.20
2022-09-17T13:49:06.403Z,1.10
2022-09-17T13:51:33.000Z,1.10
2022-09-17T13:54:03.180Z,1.20
2022-09-17T13:56:49.283Z,1.30
2022-09-17T13:59:25.789Z,1.80
2022-09-17T14:01:59.862Z,2.90
2022-09-17T14:04:47.516Z,0.93
2022-09-17T14:07:28.846Z,1.20
2022-09-17T14:10:01.400Z,1.30
2022-09-17T14:12:50.848Z,0.93
2022-09-17T14:15:40.668Z,1.63
2022-09-17T14:18:29.109Z,1.10
2022-09-17T14:21:24.600Z,1.30
2022-09-17T14:23:56.651Z,0.90
2022-09-17T14:26:57.716Z,1.20
2022-09-17T14:29:55.576Z,1.27
2022-09-17T14:32:42.821Z,1.10
2022-09-17T14:35:37.013Z,1.40
2022-09-17T14:38:26.898Z,1.20
2022-09-17T14:41:03.726Z,1.30
2022-09-17T14:43:45.071Z,1.07
2022-09-17T14:46:29.837Z,1.43
2022-09-17T14:49:30.846Z,1.00
2022-09-17T14:51:58.930Z,1.23
2022-09-17T14:54:36.514Z,1.20
2022-09-17T14:57:28.523Z,1.13
2022-09-17T14:59:57.134Z,1.00
2022-09-17T15:02:32.861Z,1.00
2022-09-17T15:05:01.979Z,1.10
2022-09-17T15:07:28.667Z,1.17
2022-09-17T15:10:05.832Z,1.40
2022-09-17T15:12:32.613Z,1.20
2022-09-17T15:14:59.349Z,0.93
2022-09-17T15:17:26.277Z,1.30
2022-09-17T15:19:57.035Z,1.10
2022-09-17T15:22:27.809Z,1.00
2022-09-17T15:24:59.769Z,1.93
2022-09-17T15:27:41.156Z,0.97
2022-09-17T15:30:21.046Z,0.90
2022-09-17T15:32:56.146Z,0.93
2022-09-17T15:35:30.699Z,1.00
2022-09-17T15:38:23.322Z,0.97
2022-09-17T15:40:51.743Z,0.90
2022-09-17T15:43:30.688Z,0.80
2022-09-17T15:46:01.547Z,0.80
2022-09-17T15:48:28.110Z,0.90
2022-09-17T15:50:55.766Z,0.90
2022-09-17T15:53:30.112Z,1.00
2022-09-17T15:55:59.868Z,0.90
2022-09-17T15:58:29.609Z,0.70
2022-09-17T16:01:16.418Z,0.83
2022-09-17T16:03:46.245Z,1.17
2022-09-17T16:06:18.705Z,1.50
2022-09-17T16:08:59.476Z,0.90
2022-09-17T16:11:29.905Z,0.80
2022-09-17T16:13:58.434Z,0.70
2022-09-17T16:16:38.267Z,0.80
2022-09-17T16:19:06.548Z,0.80
2022-09-17T16:21:33.252Z,0.80
2022-09-17T16:23:59.893Z,0.87
2022-09-17T16:26:32.411Z,1.10
2022-09-17T16:29:04.817Z,1.03
2022-09-17T16:31:32.051Z,0.80
2022-09-17T16:33:59.324Z,1.10
2022-09-17T16:36:26.230Z,0.80
2022-09-17T16:38:52.865Z,0.97
2022-09-17T16:41:19.503Z,0.93
2022-09-17T16:43:46.126Z,0.87
2022-09-17T16:46:13.018Z,1.03
2022-09-17T16:48:41.161Z,1.33
2022-09-17T16:51:12.097Z,1.43
2022-09-17T16:53:39.800Z,1.00
2022-09-17T16:56:07.796Z,0.93
2022-09-17T16:58:34.621Z,0.93
2022-09-17T17:01:15.399Z,1.17
2022-09-17T17:03:42.708Z,1.37
2022-09-17T17:06:19.862Z,0.80
2022-09-17T17:08:46.720Z,0.80
2022-09-17T17:11:13.914Z,1.23
2022-09-17T17:13:43.122Z,0.83
2022-09-17T17:16:12.332Z,1.00
2022-09-17T17:18:39.133Z,1.10
2022-09-17T17:21:10.960Z,1.03
2022-09-17T17:23:37.986Z,0.80
2022-09-17T17:26:04.844Z,0.90
2022-09-17T17:28:32.474Z,1.20
2022-09-17T17:30:59.181Z,1.00
2022-09-17T17:33:25.872Z,1.10
2022-09-17T17:35:52.577Z,1.30
2022-09-17T17:38:19.406Z,1.03
2022-09-17T17:40:46.187Z,0.90
2022-09-17T17:43:13.516Z,1.17
2022-09-17T17:45:40.421Z,1.10
2022-09-17T17:48:07.055Z,0.97
2022-09-17T17:50:33.945Z,1.10
2022-09-17T17:53:00.577Z,0.90
2022-09-17T17:55:27.203Z,2.40
2022-09-17T17:58:01.183Z,1.10
2022-09-17T18:00:28.320Z,0.90
2022-09-17T18:02:55.015Z,1.30
2022-09-17T18:05:22.047Z,0.83
2022-09-17T18:07:49.606Z,0.97
2022-09-17T18:10:16.581Z,0.80
2022-09-17T18:12:50.411Z,1.00
2022-09-17T18:15:17.362Z,0.80
2022-09-17T18:17:44.028Z,0.90
2022-09-17T18:20:10.991Z,0.90
2022-09-17T18:22:37.648Z,0.80
2022-09-17T18:25:04.599Z,1.50
2022-09-17T18:27:31.252Z,1.00
2022-09-17T18:29:57.913Z,1.27
2022-09-17T18:32:24.574Z,1.20
2022-09-17T18:34:51.730Z,2.10
2022-09-17T18:37:18.434Z,1.67
2022-09-17T18:39:58.014Z,1.40
2022-09-17T18:42:25.579Z,1.20
2022-09-17T18:44:52.203Z,1.10
2022-09-17T18:47:18.836Z,1.40
2022-09-17T18:49:45.496Z,1.10
2022-09-17T18:52:12.327Z,1.10
2022-09-17T18:54:38.951Z,1.00
2022-09-17T18:57:06.520Z,1.00
2022-09-17T18:59:33.296Z,1.13
2022-09-17T19:02:00.005Z,1.23
2022-09-17T19:04:28.562Z,1.40
2022-09-17T19:06:55.682Z,1.23
2022-09-17T19:09:22.291Z,1.87
2022-09-17T19:11:48.917Z,0.90
2022-09-17T19:14:15.731Z,0.90
2022-09-17T19:16:42.348Z,0.80
2022-09-17T19:19:09.917Z,0.80
2022-09-17T19:21:36.557Z,1.13
2022-09-17T19:24:03.655Z,1.00
2022-09-17T19:26:30.323Z,0.90
2022-09-17T19:28:58.582Z,0.80
2022-09-17T19:31:26.405Z,0.80
2022-09-17T19:33:53.445Z,0.90
2022-09-17T19:36:20.629Z,0.70
2022-09-17T19:38:48.077Z,1.00
2022-09-17T19:41:17.741Z,1.10
2022-09-17T19:43:45.220Z,0.90
2022-09-17T19:46:15.184Z,0.90
2022-09-17T19:49:00.892Z,0.90
2022-09-17T19:51:31.981Z,0.97
2022-09-17T19:53:58.624Z,1.17
2022-09-17T19:56:27.488Z,0.90
2022-09-17T19:58:54.228Z,0.83
2022-09-17T20:01:21.194Z,1.10
2022-09-17T20:03:48.711Z,0.90
2022-09-17T20:06:17.694Z,0.90
2022-09-17T20:08:53.039Z,1.13
2022-09-17T20:11:21.703Z,1.10
2022-09-17T20:13:48.806Z,1.00
2022-09-17T20:16:20.648Z,1.07
2022-09-17T20:18:48.326Z,1.27
2022-09-17T20:21:20.638Z,1.20
2022-09-17T20:23:47.618Z,0.97
2022-09-17T20:26:15.493Z,1.00
2022-09-17T20:28:42.950Z,1.07
2022-09-17T20:31:14.670Z,0.90
2022-09-17T20:33:41.990Z,1.00
2022-09-17T20:36:12.218Z,1.57
2022-09-17T20:41:27.423Z,1.00
2022-09-17T20:43:54.627Z,1.20
2022-09-17T20:46:28.384Z,1.17
2022-09-17T20:48:57.566Z,1.13
2022-09-17T20:51:30.151Z,1.03
2022-09-17T20:53:57.715Z,1.03
2022-09-17T20:56:30.234Z,1.20
2022-09-17T20:59:04.084Z,1.30
2022-09-17T21:01:32.869Z,1.10
2022-09-17T21:04:01.222Z,1.00
2022-09-17T21:06:30.373Z,1.00
2022-09-17T21:08:57.808Z,1.17
2022-09-17T21:11:24.854Z,1.10
2022-09-17T21:13:52.350Z,1.17
2022-09-17T21:16:19.701Z,1.30
2022-09-17T21:18:46.862Z,1.20
2022-09-17T21:21:15.918Z,1.27
2022-09-17T21:23:42.946Z,1.20
2022-09-17T21:26:18.780Z,1.23
2022-09-17T21:28:47.580Z,1.20
2022-09-17T21:31:21.520Z,1.10
2022-09-17T21:33:52.411Z,0.97
2022-09-17T21:36:21.285Z,1.37
2022-09-17T21:38:52.693Z,1.47
2022-09-17T21:41:21.880Z,0.90
2022-09-17T21:43:49.217Z,1.37
2022-09-17T21:46:18.161Z,1.40
2022-09-17T21:48:50.435Z,1.30
2022-09-17T21:51:20.291Z,1.27
2022-09-17T21:53:54.751Z,0.93
2022-09-17T21:56:21.951Z,1.40
2022-09-17T21:59:02.934Z,1.40
2022-09-17T22:01:32.758Z,1.30
2022-09-17T22:04:00.074Z,1.10
2022-09-17T22:06:29.783Z,1.30
2022-09-17T22:08:57.809Z,1.23
2022-09-17T22:11:27.869Z,1.40
2022-09-17T22:13:56.756Z,1.70
2022-09-17T22:16:26.866Z,2.03
2022-09-17T22:18:54.320Z,1.33
2022-09-17T22:21:26.177Z,1.10
2022-09-17T22:23:54.419Z,1.43
2022-09-17T22:26:22.663Z,1.17
2022-09-17T22:28:50.253Z,1.40
2022-09-17T22:31:18.438Z,1.33
2022-09-17T22:33:47.659Z,1.80
2022-09-17T22:36:21.072Z,1.30
2022-09-17T22:38:50.546Z,1.37
2022-09-17T22:41:22.117Z,1.17
2022-09-17T22:44:05.747Z,1.20
2022-09-17T22:46:34.849Z,1.27
2022-09-17T22:49:02.276Z,1.77
2022-09-17T22:51:30.617Z,1.47
2022-09-17T22:53:58.290Z,1.33
2022-09-17T22:56:27.080Z,1.00
2022-09-17T22:58:53.814Z,1.33
2022-09-17T23:01:23.924Z,1.17
2022-09-17T23:03:53.496Z,1.27
2022-09-17T23:06:23.698Z,1.03
2022-09-17T23:08:50.863Z,1.30
2022-09-17T23:11:25.739Z,1.83
2022-09-17T23:13:53.030Z,1.53
2022-09-17T23:16:20.521Z,1.13
2022-09-17T23:18:47.330Z,1.20
2022-09-17T23:21:17.212Z,1.43
2022-09-17T23:23:46.720Z,1.70
2022-09-17T23:26:17.185Z,1.40
2022-09-17T23:28:44.252Z,1.67
2022-09-17T23:31:23.107Z,1.20
2022-09-17T23:33:50.909Z,1.20
2022-09-17T23:36:21.097Z,1.20
2022-09-17T23:38:49.112Z,1.73
2022-09-17T23:41:18.627Z,1.60
2022-09-17T23:43:48.225Z,1.53
2022-09-17T23:46:15.721Z,1.30
2022-09-17T23:48:42.778Z,1.03
2022-09-17T23:51:10.029Z,1.27
2022-09-17T23:53:37.583Z,1.23
2022-09-17T23:56:08.715Z,1.73
2022-09-17T23:58:35.350Z,1.93
